Time;durP1;ratioP1;P1;durP2;ratioP2;P2;SDS_P1;SDS_P2;PMS_P1;PMS_P2;Temp;Humidity;BMP_temperature;BMP_pressure;BME280_temperature;BME280_humidity;BME280_pressure;Samples;Min_cycle;Max_cycle;Signal;HPM_P1;HPM_P2
2022/08/15 00:01:28;;;;;;;13.45;8.65;;;;;;;19.29;76.82;100772.56;1630604;86;21007;-84
2022/08/15 00:03:57;;;;;;;10.18;9.08;;;;;;;19.30;76.83;100766.34;1630592;87;21066;-84
2022/08/15 00:06:28;;;;;;;10.55;9.03;;;;;;;19.33;76.96;100774.29;1630563;87;21030;-84
2022/08/15 00:08:57;;;;;;;9.85;8.85;;;;;;;19.33;76.97;100769.86;1629172;86;21104;-84
2022/08/15 00:11:31;;;;;;;17.32;9.78;;;;;;;19.34;76.95;100765.39;1626049;86;21772;-84
2022/08/15 00:14:03;;;;;;;14.58;9.85;;;;;;;19.34;77.01;100769.40;1630001;86;21468;-84
2022/08/15 00:16:36;;;;;;;11.88;9.45;;;;;;;19.32;77.04;100763.20;1627349;86;21040;-84
2022/08/15 00:19:15;;;;;;;16.30;10.50;;;;;;;19.29;77.09;100765.89;1630908;87;20998;-84
2022/08/15 00:21:46;;;;;;;11.20;8.75;;;;;;;19.30;77.16;100767.67;1630947;87;21437;-84
2022/08/15 00:24:15;;;;;;;14.33;9.73;;;;;;;19.28;77.03;100758.80;1631123;87;22379;-84
2022/08/15 00:26:48;;;;;;;16.23;10.08;;;;;;;19.28;77.13;100764.14;1630932;87;21730;-84
2022/08/15 00:29:18;;;;;;;11.78;9.70;;;;;;;19.27;77.22;100769.03;1630994;86;22014;-84
2022/08/15 00:31:45;;;;;;;11.97;9.08;;;;;;;19.27;77.28;100762.36;1622979;87;21477;-84
2022/08/15 00:34:14;;;;;;;16.10;9.78;;;;;;;19.26;77.30;100763.23;1630835;87;21831;-84
2022/08/15 00:36:48;;;;;;;12.37;9.68;;;;;;;19.28;77.51;100758.80;1630023;86;21063;-84
2022/08/15 00:39:15;;;;;;;12.98;10.82;;;;;;;19.28;77.63;100758.34;1630076;86;21006;-84
2022/08/15 00:41:42;;;;;;;12.90;10.20;;;;;;;19.32;77.87;100764.08;1630510;87;21021;-84
2022/08/15 00:44:30;;;;;;;13.28;10.65;;;;;;;19.40;77.94;100773.33;1630460;87;21026;-84
2022/08/15 00:47:00;;;;;;;12.70;10.32;;;;;;;19.46;78.07;100768.38;1623852;86;21049;-84
2022/08/15 00:49:28;;;;;;;12.98;9.98;;;;;;;19.54;78.07;100773.16;1630813;86;21920;-84
2022/08/15 00:52:06;;;;;;;12.95;9.78;;;;;;;19.61;78.04;100777.10;1630738;87;21006;-84
2022/08/15 00:54:53;;;;;;;12.45;10.40;;;;;;;19.68;77.95;100773.02;1624518;87;21014;-84
2022/08/15 00:57:24;;;;;;;10.53;9.05;;;;;;;19.72;77.76;100776.08;1614609;87;21054;-84
2022/08/15 00:59:54;;;;;;;10.50;9.40;;;;;;;19.73;77.65;100774.77;1630318;87;21449;-84
2022/08/15 01:02:23;;;;;;;12.33;8.85;;;;;;;19.75;77.59;100785.43;1630248;87;21875;-84
2022/08/15 01:04:52;;;;;;;14.47;8.23;;;;;;;19.78;77.60;100782.70;1630122;87;20995;-84
2022/08/15 01:07:20;;;;;;;11.83;9.55;;;;;;;19.80;77.60;100774.21;1630926;87;21006;-84
2022/08/15 01:09:48;;;;;;;10.82;9.28;;;;;;;19.84;77.50;100777.30;1630374;87;21030;-84
2022/08/15 01:12:21;;;;;;;12.73;8.90;;;;;;;19.86;77.40;100782.17;1630198;86;21049;-84
2022/08/15 01:14:52;;;;;;;8.78;7.87;;;;;;;19.86;77.29;100782.59;1630898;86;21757;-84
2022/08/15 01:17:18;;;;;;;14.93;10.05;;;;;;;19.86;77.34;100783.51;1630784;86;21108;-84
2022/08/15 01:19:50;;;;;;;12.03;8.88;;;;;;;19.85;77.29;100776.84;1630863;86;21171;-84
2022/08/15 01:23:03;;;;;;;12.15;9.05;;;;;;;19.82;77.30;100768.43;1629252;87;21074;-84
2022/08/15 01:25:43;;;;;;;12.37;9.25;;;;;;;19.80;77.43;100774.21;1630735;86;21024;-84
2022/08/15 01:28:28;;;;;;;11.63;9.43;;;;;;;19.81;77.55;100771.98;1630919;86;21739;-84
2022/08/15 01:30:58;;;;;;;13.48;8.83;;;;;;;19.82;77.61;100771.10;1602465;87;21393;-84
2022/08/15 01:33:27;;;;;;;14.07;10.00;;;;;;;19.83;77.50;100766.63;1630974;86;21009;-84
2022/08/15 01:35:54;;;;;;;10.88;9.03;;;;;;;19.80;77.46;100759.09;1631097;87;21013;-85
2022/08/15 01:38:28;;;;;;;11.60;9.00;;;;;;;19.81;77.43;100756.84;1666503;84;21037;-85
2022/08/15 01:41:32;;;;;;;13.43;9.13;;;;;;;19.78;77.35;100754.66;1631090;86;21743;-84
2022/08/15 01:44:19;;;;;;;;;;;;;;;19.74;77.35;100756.48;1633630;86;21006;-84
2022/08/15 01:47:03;;;;;;;14.25;9.10;;;;;;;19.69;77.45;100750.30;1631252;86;20218;-84
2022/08/15 01:49:35;;;;;;;13.05;8.70;;;;;;;19.63;77.49;100754.36;1615496;86;21173;-84
2022/08/15 01:52:09;;;;;;;10.20;9.13;;;;;;;19.58;77.60;100754.44;1624763;87;21001;-84
2022/08/15 01:54:36;;;;;;;12.23;8.85;;;;;;;19.54;77.66;100756.71;1624351;86;21655;-84
2022/08/15 01:57:08;;;;;;;12.82;9.45;;;;;;;19.49;77.66;100754.54;1624944;87;21007;-84
2022/08/15 01:59:34;;;;;;;11.48;9.58;;;;;;;19.46;77.79;100763.03;1626020;86;21045;-84
2022/08/15 02:02:04;;;;;;;19.35;9.88;;;;;;;19.44;77.86;100764.38;1626142;86;21027;-84
2022/08/15 02:04:34;;;;;;;12.07;9.25;;;;;;;19.40;77.95;100762.19;1626043;86;21049;-84
2022/08/15 02:07:17;;;;;;;14.20;9.95;;;;;;;19.37;78.02;100757.33;1608144;88;21029;-84
2022/08/15 02:09:41;;;;;;;13.58;10.80;;;;;;;19.36;78.25;100759.13;1625279;86;21022;-84
2022/08/15 02:12:08;;;;;;;12.40;10.70;;;;;;;19.37;78.56;100751.57;1625447;86;21858;-84
2022/08/15 02:14:41;;;;;;;16.57;11.97;;;;;;;19.40;78.88;100755.98;1626218;86;21893;-84
2022/08/15 02:17:08;;;;;;;17.45;11.25;;;;;;;19.42;79.16;100754.17;1626312;86;21081;-84
2022/08/15 02:19:37;;;;;;;16.17;11.75;;;;;;;19.44;79.15;100748.36;1616999;86;21022;-84
2022/08/15 02:22:05;;;;;;;18.10;12.47;;;;;;;19.47;79.15;100747.47;1614860;86;21017;-84
2022/08/15 02:24:32;;;;;;;16.07;12.33;;;;;;;19.49;79.24;100739.86;1625987;86;21050;-84
2022/08/15 02:26:58;;;;;;;21.12;13.13;;;;;;;19.53;79.51;100738.91;1625892;86;21013;-84
2022/08/15 02:29:26;;;;;;;20.75;13.13;;;;;;;19.57;79.68;100737.97;1626067;86;21062;-84
2022/08/15 02:31:59;;;;;;;19.00;13.18;;;;;;;19.61;79.73;100744.16;1625892;86;21013;-84
2022/08/15 02:34:26;;;;;;;13.78;11.93;;;;;;;19.64;79.76;100740.12;1625948;88;20966;-84
2022/08/15 02:36:53;;;;;;;11.80;10.63;;;;;;;19.66;79.63;100742.32;1625848;86;21428;-84
2022/08/15 02:39:19;;;;;;;15.20;10.40;;;;;;;19.61;79.20;100737.48;1625859;86;21039;-84
2022/08/15 02:41:51;;;;;;;12.60;10.78;;;;;;;19.54;79.02;100737.11;1625993;86;21037;-84
2022/08/15 02:44:20;;;;;;;17.00;11.35;;;;;;;19.52;79.08;100738.92;1625944;86;21700;-84
2022/08/15 02:46:49;;;;;;;16.27;11.22;;;;;;;19.49;79.12;100737.19;1625811;86;21450;-84
2022/08/15 02:49:19;;;;;;;12.65;10.38;;;;;;;19.50;79.13;100736.30;1624464;88;21113;-84
2022/08/15 02:51:48;;;;;;;13.93;11.40;;;;;;;19.46;79.03;100731.87;1622941;86;21093;-85
2022/08/15 02:54:16;;;;;;;14.87;11.73;;;;;;;19.45;79.07;100730.58;1624283;86;21476;-84
2022/08/15 02:56:44;;;;;;;14.40;11.38;;;;;;;19.43;79.07;100721.25;1624053;86;21811;-84
2022/08/15 02:59:11;;;;;;;16.57;10.55;;;;;;;19.40;78.99;100723.95;1623902;87;21049;-84
2022/08/15 03:01:41;;;;;;;15.53;11.40;;;;;;;19.38;78.99;100725.75;1623166;86;22034;-84
2022/08/15 03:04:11;;;;;;;16.70;11.35;;;;;;;19.34;78.97;100715.56;1623837;87;21106;-84
2022/08/15 03:06:38;;;;;;;16.67;12.00;;;;;;;19.30;79.08;100718.30;1623375;87;21066;-84
2022/08/15 03:09:07;;;;;;;16.75;10.95;;;;;;;19.29;79.26;100712.52;1624569;87;21788;-84
2022/08/15 03:11:38;;;;;;;11.93;10.40;;;;;;;19.29;79.22;100719.19;1605388;87;21097;-84
2022/08/15 03:14:08;;;;;;;13.00;10.18;;;;;;;19.26;79.24;100717.45;1624468;87;21104;-84
2022/08/15 03:16:36;;;;;;;13.03;10.15;;;;;;;19.25;79.25;100717.00;1624426;87;21554;-84
2022/08/15 03:19:03;;;;;;;13.68;10.75;;;;;;;19.26;79.30;100724.55;1614782;86;21088;-84
2022/08/15 03:21:30;;;;;;;13.78;10.78;;;;;;;19.26;79.33;100715.20;1624304;86;21802;-84
2022/08/15 03:23:59;;;;;;;14.98;11.28;;;;;;;19.28;79.29;100719.64;1624242;86;21694;-84
2022/08/15 03:26:26;;;;;;;13.05;10.55;;;;;;;19.28;79.19;100715.64;1624293;86;21147;-84
2022/08/15 03:28:53;;;;;;;17.05;10.20;;;;;;;19.25;79.20;100708.13;1606549;86;21160;-84
2022/08/15 03:31:23;;;;;;;16.35;10.45;;;;;;;19.27;79.13;100716.53;1624229;86;21627;-84
2022/08/15 03:33:50;;;;;;;19.57;11.35;;;;;;;19.26;79.14;100710.78;1624323;86;22628;-84
2022/08/15 03:36:19;;;;;;;16.70;10.93;;;;;;;19.27;79.19;100708.52;1623140;86;21358;-84
2022/08/15 03:38:47;;;;;;;17.15;12.40;;;;;;;19.28;79.26;100708.09;1624295;86;21112;-84
2022/08/15 03:41:14;;;;;;;15.93;11.40;;;;;;;19.32;79.76;100706.69;1624163;86;21089;-85
2022/08/15 03:43:41;;;;;;;17.50;11.50;;;;;;;19.36;79.72;100706.20;1624229;87;21583;-84
2022/08/15 03:46:11;;;;;;;16.07;12.35;;;;;;;19.40;79.76;100703.92;1623983;86;21762;-84
2022/08/15 03:48:44;;;;;;;16.67;12.82;;;;;;;19.47;79.81;100696.28;1623839;86;20988;-84
2022/08/15 03:51:11;;;;;;;;;;;;;;;19.73;80.50;100704.45;1627318;86;21119;-84
2022/08/15 03:53:44;;;;;;;13.03;11.00;;;;;;;20.15;80.63;100696.24;1627871;86;20492;-84
2022/08/15 03:56:14;;;;;;;14.20;11.38;;;;;;;20.57;80.31;100692.89;1553745;89;21897;-84
2022/08/15 03:58:42;;;;;;;14.90;11.03;;;;;;;21.04;79.86;100686.28;1583608;89;21824;-84
2022/08/15 04:01:17;;;;;;;12.58;10.32;;;;;;;22.03;78.67;100683.30;1587112;89;20900;-84
2022/08/15 04:03:45;;;;;;;19.52;11.15;;;;;;;22.03;78.67;100683.30;1587235;90;21079;-84
2022/08/15 04:06:14;;;;;;;13.35;10.08;;;;;;;22.57;77.90;100686.05;1579672;89;21162;-85
2022/08/15 04:08:41;;;;;;;16.75;10.68;;;;;;;23.13;77.33;100701.60;1580935;89;21044;-87
2022/08/15 04:11:10;;;;;;;15.32;10.08;;;;;;;23.68;76.50;100705.83;1576624;89;21893;-88
2022/08/15 04:13:39;;;;;;;12.95;10.60;;;;;;;24.31;75.69;100705.72;1582333;89;21102;-87
2022/08/15 04:16:06;;;;;;;16.97;9.95;;;;;;;24.92;74.72;100704.98;1575274;89;21375;-88
2022/08/15 04:18:33;;;;;;;15.85;9.90;;;;;;;25.53;73.56;100700.55;1555811;90;21059;-88
2022/08/15 04:21:02;;;;;;;11.50;9.25;;;;;;;26.09;72.00;100697.06;1583226;89;21031;-88
2022/08/15 04:23:29;;;;;;;12.07;9.33;;;;;;;26.60;71.29;100699.94;1568446;90;22703;-88
2022/08/15 04:25:55;;;;;;;14.90;9.83;;;;;;;27.17;69.76;100704.20;1587860;89;21011;-88
2022/08/15 04:28:24;;;;;;;14.23;9.68;;;;;;;27.61;68.71;100709.45;1586901;89;21019;-88
2022/08/15 04:30:51;;;;;;;14.58;9.63;;;;;;;28.00;67.79;100707.16;1577084;89;21091;-88
2022/08/15 04:33:25;;;;;;;17.10;11.20;;;;;;;28.64;67.25;100700.88;1555755;89;21123;-88
2022/08/15 04:36:01;;;;;;;12.40;10.00;;;;;;;29.37;65.92;100699.33;1581253;89;21815;-87
2022/08/15 04:38:28;;;;;;;13.98;10.53;;;;;;;29.84;63.93;100690.42;1587475;89;21026;-88
2022/08/15 04:40:55;;;;;;;17.10;10.53;;;;;;;30.11;62.60;100697.48;1587865;88;21043;-88
2022/08/15 04:43:22;;;;;;;16.10;9.75;;;;;;;30.41;62.22;100697.56;1580619;89;21024;-88
2022/08/15 04:45:49;;;;;;;12.90;9.85;;;;;;;30.96;61.45;100693.89;1584680;89;21058;-88
2022/08/15 04:48:17;;;;;;;11.40;9.78;;;;;;;31.56;60.38;100691.03;1576903;89;21039;-88
2022/08/15 04:50:46;;;;;;;13.28;10.15;;;;;;;32.13;59.64;100691.94;1577038;89;21514;-88
2022/08/15 04:53:17;;;;;;;17.90;10.50;;;;;;;32.72;58.58;100688.41;1573263;89;21074;-89
2022/08/15 04:55:43;;;;;;;20.48;11.97;;;;;;;33.17;57.13;100683.08;1593048;87;21109;-88
2022/08/15 04:58:13;;;;;;;12.88;10.58;;;;;;;33.50;55.49;100678.42;1591660;88;21138;-88
2022/08/15 05:00:43;;;;;;;13.68;10.13;;;;;;;33.60;54.55;100675.89;1590604;89;21780;-88
2022/08/15 05:03:16;;;;;;;15.78;10.45;;;;;;;33.83;53.96;100675.11;1592135;88;21004;-88
2022/08/15 05:05:45;;;;;;;;;;;;;;;34.18;52.80;100670.75;1566340;90;21095;-89
2022/08/15 05:08:11;;;;;;;19.57;10.80;;;;;;;34.18;51.07;100669.38;1592069;88;20353;-89
2022/08/15 05:10:39;;;;;;;17.17;10.20;;;;;;;33.99;50.77;100664.41;1599958;88;21088;-88
2022/08/15 05:13:18;;;;;;;17.23;11.55;;;;;;;33.93;50.23;100663.51;1592627;89;21750;-88
2022/08/15 05:15:45;;;;;;;11.18;9.98;;;;;;;34.34;49.95;100671.33;1593568;88;21034;-88
2022/08/15 05:18:11;;;;;;;14.05;9.93;;;;;;;34.71;49.21;100672.63;1594210;88;21658;-89
2022/08/15 05:20:39;;;;;;;14.25;11.55;;;;;;;35.31;49.19;100681.61;1594199;89;21007;-88
2022/08/15 05:23:12;;;;;;;13.50;9.13;;;;;;;35.98;47.63;100681.19;1592946;88;21084;-88
2022/08/15 05:25:42;;;;;;;18.02;10.40;;;;;;;36.18;47.51;100683.67;1593844;88;21764;-88
2022/08/15 05:28:10;;;;;;;10.72;8.90;;;;;;;36.68;46.49;100689.48;1592704;89;21057;-88
2022/08/15 05:30:37;;;;;;;13.22;9.20;;;;;;;36.94;45.78;100684.95;1594292;88;21452;-88
2022/08/15 05:33:14;;;;;;;13.08;9.40;;;;;;;36.55;44.31;100678.67;1595589;88;21002;-89
2022/08/15 05:35:44;;;;;;;17.75;9.40;;;;;;;35.75;43.86;100677.13;1580022;90;21067;-89
2022/08/15 05:38:17;;;;;;;11.83;8.48;;;;;;;34.63;43.66;100664.11;1583790;88;22599;-89
2022/08/15 05:40:55;;;;;;;11.97;8.50;;;;;;;33.61;44.06;100666.23;1591715;89;21048;-89
2022/08/15 05:43:54;;;;;;;13.18;9.50;;;;;;;32.66;44.57;100672.49;1592356;90;20964;-88
2022/08/15 05:46:48;;;;;;;13.85;10.08;;;;;;;31.88;45.33;100669.52;1591861;89;21950;-88
2022/08/15 05:49:39;;;;;;;10.85;8.93;;;;;;;31.04;45.93;100675.25;1591018;88;21044;-87
2022/08/15 05:52:56;;;;;;;14.15;8.93;;;;;;;30.36;46.87;100674.36;1604358;85;22600;-88
2022/08/15 05:55:38;;;;;;;10.98;9.70;;;;;;;29.80;47.41;100678.00;1620507;87;21014;-88
2022/08/15 05:58:31;;;;;;;13.88;10.08;;;;;;;29.27;48.19;100678.63;1620577;87;20996;-89
2022/08/15 06:01:21;;;;;;;15.57;10.10;;;;;;;28.91;48.73;100689.59;1621726;86;21018;-88
2022/08/15 06:03:56;;;;;;;10.10;9.00;;;;;;;28.58;49.33;100682.23;1618648;87;21932;-88
2022/08/15 06:06:26;;;;;;;14.33;9.70;;;;;;;28.33;49.82;100688.87;1604866;87;21775;-88
2022/08/15 06:08:59;;;;;;;11.00;9.53;;;;;;;28.13;50.34;100693.04;1602290;88;21068;-87
2022/08/15 06:11:31;;;;;;;10.78;9.63;;;;;;;27.94;50.70;100702.53;1605901;87;21111;-88
2022/08/15 06:14:34;;;;;;;11.12;9.43;;;;;;;27.74;51.02;100696.20;1604740;87;21663;-87
2022/08/15 06:17:18;;;;;;;11.43;10.20;;;;;;;27.58;51.37;100699.24;1596174;89;21624;-87
2022/08/15 06:19:47;;;;;;;14.23;10.13;;;;;;;27.37;51.77;100695.69;1616323;87;22788;-88
2022/08/15 06:22:51;;;;;;;11.18;10.10;;;;;;;27.17;52.12;100698.80;1582272;89;21079;-88
2022/08/15 06:25:23;;;;;;;11.53;9.73;;;;;;;27.03;52.45;100693.12;1623392;87;21533;-87
2022/08/15 06:28:21;;;;;;;13.70;10.82;;;;;;;26.79;52.80;100694.63;1560208;89;21050;-88
2022/08/15 06:31:02;;;;;;;14.23;9.73;;;;;;;26.72;53.22;100689.95;1600708;86;21121;-87
2022/08/15 06:33:52;;;;;;;15.72;11.88;;;;;;;26.62;53.44;100692.66;1604218;87;22264;-87
2022/08/15 06:36:30;;;;;;;12.07;10.28;;;;;;;26.51;53.63;100686.32;1621648;87;21133;-87
2022/08/15 06:39:20;;;;;;;13.13;11.60;;;;;;;26.31;53.91;100687.63;1605640;89;22233;-87
2022/08/15 06:42:06;;;;;;;12.82;10.93;;;;;;;26.24;54.29;100682.06;1591640;87;21129;-87
2022/08/15 06:44:33;;;;;;;12.73;11.45;;;;;;;26.17;54.62;100687.73;1567309;90;21130;-86
2022/08/15 06:47:04;;;;;;;14.60;11.33;;;;;;;26.03;54.83;100694.14;1570576;90;21900;-88
2022/08/15 06:49:34;;;;;;;14.80;11.25;;;;;;;25.96;55.15;100692.66;1575171;90;21103;-87
2022/08/15 06:52:02;;;;;;;15.95;11.33;;;;;;;25.96;55.38;100685.44;1592934;87;21034;-87
2022/08/15 06:54:29;;;;;;;13.68;10.90;;;;;;;25.97;55.54;100682.27;1636317;85;21023;-87
2022/08/15 06:57:18;;;;;;;14.03;10.70;;;;;;;25.98;55.70;100679.98;1645228;85;21493;-87
2022/08/15 07:00:12;;;;;;;13.32;11.18;;;;;;;25.94;55.73;100676.98;1641279;85;21546;-87
2022/08/15 07:03:08;;;;;;;13.18;11.80;;;;;;;25.95;55.96;100678.27;1642972;85;21085;-87
2022/08/15 07:05:54;;;;;;;13.32;11.90;;;;;;;25.96;56.24;100682.73;1573956;88;21106;-87
2022/08/15 07:08:40;;;;;;;16.23;11.88;;;;;;;25.89;56.36;100677.14;1594110;88;21584;-87
2022/08/15 07:11:17;;;;;;;17.35;12.78;;;;;;;25.88;56.56;100682.11;1591189;87;21141;-87
2022/08/15 07:14:18;;;;;;;13.40;12.05;;;;;;;25.92;56.67;100682.91;1600225;87;22433;-87
2022/08/15 07:17:12;;;;;;;14.15;11.40;;;;;;;25.91;56.85;100677.09;1583442;88;21094;-86
2022/08/15 07:19:38;;;;;;;12.95;11.55;;;;;;;25.93;57.06;100680.63;1594806;87;21161;-86
2022/08/15 07:22:09;;;;;;;15.55;11.93;;;;;;;25.96;57.20;100677.83;1594617;88;21086;-86
2022/08/15 07:24:36;;;;;;;12.88;10.72;;;;;;;26.01;57.15;100680.32;1588698;88;21104;-86
2022/08/15 07:27:13;;;;;;;13.78;11.97;;;;;;;26.01;57.07;100683.89;1597173;87;21757;-87
2022/08/15 07:29:49;;;;;;;12.13;10.95;;;;;;;26.05;57.19;100690.04;1546264;89;21024;-86
2022/08/15 07:32:26;;;;;;;13.72;11.48;;;;;;;26.14;57.42;100684.27;1591195;87;21564;-86
2022/08/15 07:35:13;;;;;;;17.80;10.32;;;;;;;26.22;57.42;100679.91;1585373;88;21125;-86
2022/08/15 07:37:50;;;;;;;13.28;10.50;;;;;;;26.32;57.37;100685.34;1592833;88;21130;-86
2022/08/15 07:40:32;;;;;;;13.20;11.18;;;;;;;26.32;57.32;100678.13;1589856;87;21831;-86
2022/08/15 07:43:01;;;;;;;12.55;11.10;;;;;;;26.41;57.37;100675.52;1594432;87;21118;-86
2022/08/15 07:45:36;;;;;;;14.05;10.68;;;;;;;26.46;57.44;100670.78;1582730;87;21601;-87
2022/08/15 07:48:22;;;;;;;13.20;11.20;;;;;;;26.53;57.43;100680.38;1596286;87;21957;-86
2022/08/15 07:51:16;;;;;;;13.45;11.50;;;;;;;26.61;57.43;100684.61;1595941;88;21077;-86
2022/08/15 07:53:53;;;;;;;12.03;10.65;;;;;;;26.67;57.21;100691.09;1599671;87;21632;-86
2022/08/15 07:56:20;;;;;;;12.00;10.63;;;;;;;26.69;57.18;100682.45;1595420;88;21389;-89
2022/08/15 07:58:52;;;;;;;13.75;11.28;;;;;;;26.70;57.02;100687.79;1577758;88;44247;-89
2022/08/15 08:01:28;;;;;;;11.85;10.72;;;;;;;26.69;57.02;100683.35;1592130;88;21150;-90
2022/08/15 08:04:06;;;;;;;14.43;11.48;;;;;;;26.72;57.10;100679.15;1566888;89;21161;-86
2022/08/15 08:06:44;;;;;;;12.07;10.88;;;;;;;26.76;57.11;100674.02;1583228;88;21833;-85
2022/08/15 08:09:20;;;;;;;11.95;10.75;;;;;;;26.84;57.34;100680.91;1578846;88;21585;-84
2022/08/15 08:11:53;;;;;;;12.43;11.33;;;;;;;26.95;57.60;100670.06;1585263;88;21615;-84
2022/08/15 08:15:18;;;;;;;12.65;11.00;;;;;;;27.06;57.44;100670.91;1570101;88;21162;-84
2022/08/15 08:18:35;;;;;;;11.63;10.43;;;;;;;27.18;57.52;100669.94;1533946;91;21125;-84
2022/08/15 08:21:34;;;;;;;14.90;10.63;;;;;;;27.30;57.35;100663.55;1564021;89;21106;-84
2022/08/15 08:25:02;;;;;;;11.38;9.93;;;;;;;27.36;57.22;100652.05;1493064;94;21219;-84
2022/08/15 08:28:09;;;;;;;11.15;10.10;;;;;;;27.41;57.01;100656.30;1532624;91;21120;-84
2022/08/15 08:30:42;;;;;;;15.30;11.03;;;;;;;27.43;56.95;100665.69;1553594;89;21163;-84
2022/08/15 08:34:06;;;;;;;17.40;11.50;;;;;;;27.51;56.82;100663.49;1512521;92;21149;-84
2022/08/15 08:37:07;;;;;;;12.03;10.35;;;;;;;27.59;56.72;100664.48;1515374;93;23020;-84
2022/08/15 08:39:48;;;;;;;12.23;10.95;;;;;;;27.66;56.83;100664.59;1511056;92;21509;-84
2022/08/15 08:42:31;;;;;;;12.53;11.05;;;;;;;27.79;56.65;100660.83;1502061;93;21167;-84
2022/08/15 08:45:21;;;;;;;15.53;10.60;;;;;;;27.77;56.36;100655.98;1512108;92;21530;-84
2022/08/15 08:48:34;;;;;;;13.10;10.85;;;;;;;27.73;56.23;100662.01;1497533;93;21179;-84
2022/08/15 08:51:34;;;;;;;11.90;9.63;;;;;;;27.75;56.35;100665.99;1549046;90;22471;-84
2022/08/15 08:54:17;;;;;;;14.58;12.13;;;;;;;27.76;56.46;100670.44;1546224;90;22018;-84
2022/08/15 08:56:45;;;;;;;;;;;;;;;27.81;56.46;100669.27;1498295;92;21055;-83
2022/08/15 08:59:59;;;;;;;15.90;10.68;;;;;;;27.86;56.33;100670.41;1563251;90;20592;-84
2022/08/15 09:02:57;;;;;;;15.68;13.32;;;;;;;27.88;56.31;100668.02;1537096;91;21080;-84
2022/08/15 09:05:37;;;;;;;13.68;11.55;;;;;;;27.92;56.25;100664.73;1522343;91;21738;-84
2022/08/15 09:08:11;;;;;;;13.90;10.55;;;;;;;28.04;56.28;100671.36;1547963;90;21145;-84
2022/08/15 09:10:38;;;;;;;16.73;11.60;;;;;;;28.15;56.18;100675.77;1560584;90;21113;-83
2022/08/15 09:15:55;;;;;;;15.78;10.10;;;;;;;28.32;55.80;100665.45;1552356;90;21072;-84
2022/08/15 09:18:29;;;;;;;12.68;10.82;;;;;;;28.40;55.80;100663.70;1553459;90;21802;-84
2022/08/15 09:21:00;;;;;;;12.35;10.95;;;;;;;28.56;55.73;100649.81;1561619;90;21109;-84
2022/08/15 09:23:25;;;;;;;11.75;10.43;;;;;;;28.66;55.45;100652.46;1561083;90;21184;-84
2022/08/15 09:26:19;;;;;;;13.75;11.00;;;;;;;28.79;55.42;100650.45;1556074;90;21162;-84
2022/08/15 09:29:03;;;;;;;11.28;10.08;;;;;;;28.84;55.13;100657.37;1556645;90;21117;-84
2022/08/15 09:31:34;;;;;;;10.72;9.53;;;;;;;28.87;55.12;100657.71;1526444;91;21774;-84
2022/08/15 09:34:16;;;;;;;12.37;10.93;;;;;;;28.95;55.26;100654.59;1554505;90;21165;-84
2022/08/15 09:37:03;;;;;;;12.55;11.22;;;;;;;29.07;55.11;100648.04;1568928;89;21146;-83
2022/08/15 09:40:12;;;;;;;17.32;10.00;;;;;;;29.13;54.81;100645.94;1559494;89;21138;-84
2022/08/15 09:43:11;;;;;;;13.03;9.95;;;;;;;29.17;54.69;100641.67;1560774;89;21727;-84
2022/08/15 09:46:04;;;;;;;11.93;10.82;;;;;;;29.20;54.44;100638.77;1558380;89;21854;-83
2022/08/15 09:48:44;;;;;;;14.25;11.53;;;;;;;29.26;54.38;100640.27;1538725;91;21146;-84
2022/08/15 09:52:09;;;;;;;11.28;10.08;;;;;;;29.30;54.37;100640.98;1561210;89;21141;-84
2022/08/15 09:54:58;;;;;;;10.82;9.65;;;;;;;29.32;54.30;100632.27;1555426;89;21165;-84
2022/08/15 09:57:34;;;;;;;12.10;10.03;;;;;;;29.44;54.32;100630.25;1562415;89;21161;-84
2022/08/15 10:00:18;;;;;;;12.40;10.32;;;;;;;29.53;54.02;100629.74;1564796;89;21841;-84
2022/08/15 10:02:51;;;;;;;11.63;10.38;;;;;;;29.60;53.91;100619.41;1544273;91;21129;-84
2022/08/15 10:05:44;;;;;;;11.43;9.90;;;;;;;29.66;53.67;100618.59;1542924;89;21696;-84
2022/08/15 10:08:13;;;;;;;12.30;10.15;;;;;;;29.66;53.11;100613.66;1544289;90;21726;-84
2022/08/15 10:11:05;;;;;;;12.88;9.88;;;;;;;29.73;53.19;100610.09;1526207;91;21132;-84
2022/08/15 10:13:43;;;;;;;11.75;10.40;;;;;;;29.83;52.96;100618.14;1524578;90;23033;-84
2022/08/15 10:16:45;;;;;;;17.80;10.90;;;;;;;29.83;52.48;100613.58;1612957;87;21019;-84
2022/08/15 10:19:37;;;;;;;12.05;10.65;;;;;;;29.82;52.61;100607.75;1552164;89;21668;-88
2022/08/15 10:22:27;;;;;;;12.05;10.28;;;;;;;29.98;52.69;100603.68;1584361;88;21604;-84
2022/08/15 10:25:17;;;;;;;17.02;9.65;;;;;;;30.19;52.43;100595.23;1524194;92;21074;-84
2022/08/15 10:28:06;;;;;;;13.25;9.73;;;;;;;30.38;52.24;100599.97;1523452;92;21820;-84
2022/08/15 10:30:46;;;;;;;11.68;10.65;;;;;;;30.78;52.14;100596.66;1487147;94;21160;-84
2022/08/15 10:33:36;;;;;;;10.80;9.30;;;;;;;31.18;51.44;100595.56;1483123;94;21154;-84
2022/08/15 10:36:22;;;;;;;11.48;9.63;;;;;;;31.49;51.09;100588.16;1501082;94;21062;-84
2022/08/15 10:39:25;;;;;;;;;;;;;;;;;;;;;
2022/08/15 10:42:15;;;;;;;10.48;9.40;;;;;;;32.10;49.92;100584.61;1506159;93;21934;-84
2022/08/15 10:45:14;;;;;;;11.03;8.73;;;;;;;32.55;49.65;100587.86;1490045;93;21118;-84
2022/08/15 10:48:37;;;;;;;10.32;9.33;;;;;;;32.96;48.74;100586.81;1494134;93;21084;-85
2022/08/15 10:51:32;;;;;;;11.48;8.33;;;;;;;33.12;47.82;100582.01;1443129;97;21107;-84
2022/08/15 10:54:42;;;;;;;11.57;8.15;;;;;;;33.25;47.27;100583.36;1452890;94;21010;-86
2022/08/15 10:57:48;;;;;;;12.30;8.55;;;;;;;33.24;46.83;100578.91;1462260;95;21453;-84
2022/08/15 11:00:57;;;;;;;;;;;;;;;;;;;;;
2022/08/15 11:04:03;;;;;;;9.63;8.58;;;;;;;33.31;45.99;100580.67;1472697;95;21153;-85
2022/08/15 11:06:34;;;;;;;11.68;8.43;;;;;;;33.19;45.18;100578.86;1498819;92;21228;-84
2022/08/15 11:09:09;;;;;;;10.23;8.38;;;;;;;32.96;45.05;100575.91;1523640;92;21110;-85
2022/08/15 11:12:00;;;;;;;10.90;9.73;;;;;;;32.97;45.25;100573.55;1545592;91;22209;-85
2022/08/15 11:14:37;;;;;;;10.03;7.92;;;;;;;33.14;44.93;100568.77;1552793;90;21482;-85
2022/08/15 11:17:05;;;;;;;10.78;8.30;;;;;;;33.33;44.69;100566.42;1506798;94;21296;-85
2022/08/15 11:19:46;;;;;;;11.65;7.78;;;;;;;33.36;44.26;100563.98;1507111;94;21212;-85
2022/08/15 11:22:18;;;;;;;12.65;8.85;;;;;;;33.33;44.17;100565.56;1507390;94;21260;-85
2022/08/15 11:24:41;;;;;;;11.30;8.93;;;;;;;33.15;43.61;100568.66;1507956;94;21846;-85
2022/08/15 11:27:19;;;;;;;12.00;8.38;;;;;;;32.88;43.50;100564.16;1486949;94;21551;-85
2022/08/15 11:29:59;;;;;;;10.20;8.28;;;;;;;32.77;43.85;100563.20;1513125;92;21194;-85
2022/08/15 11:32:40;;;;;;;9.28;7.83;;;;;;;32.88;43.85;100560.58;1584877;89;21101;-84
2022/08/15 11:35:30;;;;;;;8.28;7.50;;;;;;;33.04;43.73;100557.12;1580094;89;21117;-84
2022/08/15 11:38:01;;;;;;;9.20;8.20;;;;;;;33.23;43.46;100561.28;1576757;88;21816;-84
2022/08/15 11:40:38;;;;;;;10.35;8.00;;;;;;;33.29;42.77;100548.05;1568889;90;22439;-84
2022/08/15 11:43:22;;;;;;;9.73;7.25;;;;;;;33.20;42.23;100553.31;1532599;90;21169;-84
2022/08/15 11:45:50;;;;;;;9.48;8.15;;;;;;;33.02;41.94;100559.59;1549013;90;21173;-85
2022/08/15 11:48:31;;;;;;;12.40;7.92;;;;;;;32.81;42.20;100557.44;1586549;88;21499;-84
2022/08/15 11:51:11;;;;;;;12.82;8.65;;;;;;;32.68;42.28;100554.70;1590920;87;21845;-84
2022/08/15 11:54:05;;;;;;;9.63;8.68;;;;;;;32.51;42.22;100556.33;1580802;88;21109;-87
2022/08/15 11:56:55;;;;;;;16.55;8.18;;;;;;;32.34;42.32;100547.98;1604647;87;21134;-83
2022/08/15 11:59:32;;;;;;;12.75;8.45;;;;;;;32.28;42.33;100538.87;1612679;87;21141;-85
2022/08/15 12:02:06;;;;;;;9.13;8.18;;;;;;;32.35;42.55;100544.28;1611916;87;22298;-83
2022/08/15 12:04:42;;;;;;;8.85;8.05;;;;;;;32.54;42.60;100532.47;1607675;87;21826;-83
2022/08/15 12:07:19;;;;;;;10.95;8.63;;;;;;;32.84;42.78;100538.11;1571707;89;21140;-83
2022/08/15 12:10:02;;;;;;;;;;;;;;;33.06;42.21;100544.25;1574557;89;21387;-84